createdAt,value
2023-04-15T00:02:20.425Z,49.79
2023-04-15T00:05:06.396Z,49.66
2023-04-15T00:07:51.881Z,49.74
2023-04-15T00:10:37.370Z,49.85
2023-04-15T00:13:22.622Z,49.77
2023-04-15T00:16:09.263Z,49.70
2023-04-15T00:18:54.770Z,49.83
2023-04-15T00:21:39.908Z,50.00
2023-04-15T00:24:25.236Z,50.01
2023-04-15T00:27:10.640Z,49.98
2023-04-15T00:29:56.343Z,49.98
2023-04-15T00:32:42.413Z,49.99
2023-04-15T00:35:28.137Z,50.00
2023-04-15T00:38:13.448Z,49.99
2023-04-15T00:41:00.815Z,49.96
2023-04-15T00:43:46.065Z,50.01
2023-04-15T00:46:33.649Z,49.96
2023-04-15T00:49:19.375Z,49.94
2023-04-15T00:52:04.900Z,49.99
2023-04-15T00:54:51.541Z,50.11
2023-04-15T00:57:37.186Z,49.98
2023-04-15T01:00:22.825Z,49.95
2023-04-15T01:03:09.040Z,50.03
2023-04-15T01:05:58.372Z,50.06
2023-04-15T01:08:44.298Z,50.09
2023-04-15T01:11:30.683Z,49.96
2023-04-15T01:14:16.340Z,50.04
2023-04-15T01:17:02.278Z,49.99
2023-04-15T01:19:47.884Z,50.03
2023-04-15T01:22:34.489Z,50.02
2023-04-15T01:25:42.005Z,50.11
2023-04-15T01:28:28.480Z,50.15
2023-04-15T01:31:15.209Z,49.96
2023-04-15T01:34:00.951Z,50.06
2023-04-15T01:36:46.853Z,50.08
2023-04-15T01:39:32.608Z,50.08
2023-04-15T01:42:17.852Z,50.12
2023-04-15T01:45:03.655Z,50.09
2023-04-15T01:47:49.408Z,50.32
2023-04-15T01:50:36.952Z,50.10
2023-04-15T01:53:22.140Z,50.14
2023-04-15T01:56:08.163Z,50.19
2023-04-15T01:58:53.834Z,50.08
2023-04-15T02:01:39.757Z,50.08
2023-04-15T02:04:25.090Z,50.16
2023-04-15T02:07:10.563Z,50.06
2023-04-15T02:09:55.903Z,50.11
2023-04-15T02:12:41.201Z,50.16
2023-04-15T02:15:26.396Z,50.16
2023-04-15T02:18:11.790Z,50.14
2023-04-15T02:20:58.690Z,50.16
2023-04-15T02:23:47.044Z,50.17
2023-04-15T02:26:33.430Z,50.06
2023-04-15T02:29:18.789Z,50.23
2023-04-15T02:32:04.472Z,50.16
2023-04-15T02:34:49.742Z,50.13
2023-04-15T02:37:41.659Z,50.18
2023-04-15T02:40:28.006Z,50.16
2023-04-15T02:43:13.536Z,50.02
2023-04-15T02:45:58.949Z,50.17
2023-04-15T02:48:45.998Z,50.18
2023-04-15T02:51:32.351Z,50.06
2023-04-15T02:54:19.781Z,50.17
2023-04-15T02:57:06.840Z,50.21
2023-04-15T02:59:52.381Z,50.20
2023-04-15T03:02:39.496Z,50.04
2023-04-15T03:05:25.953Z,50.19
2023-04-15T03:08:11.740Z,50.14
2023-04-15T03:11:00.737Z,50.29
2023-04-15T03:13:46.414Z,50.22
2023-04-15T03:16:45.850Z,50.17
2023-04-15T03:19:34.323Z,50.14
2023-04-15T03:22:20.175Z,50.22
2023-04-15T03:25:07.012Z,50.12
2023-04-15T03:27:52.252Z,50.15
2023-04-15T03:30:37.573Z,50.34
2023-04-15T03:33:22.820Z,50.25
2023-04-15T03:36:08.193Z,50.27
2023-04-15T03:38:53.520Z,50.19
2023-04-15T03:41:38.758Z,50.09
2023-04-15T03:44:24.220Z,50.11
2023-04-15T03:47:09.517Z,50.05
2023-04-15T03:49:54.743Z,50.11
2023-04-15T03:52:40.073Z,50.09
2023-04-15T03:55:25.586Z,50.01
2023-04-15T03:58:13.044Z,50.25
2023-04-15T04:00:58.444Z,49.97
2023-04-15T04:03:43.867Z,49.89
2023-04-15T04:06:29.471Z,49.94
2023-04-15T04:09:14.884Z,49.91
2023-04-15T04:12:00.285Z,50.02
2023-04-15T04:14:45.663Z,49.86
2023-04-15T04:17:31.297Z,50.01
2023-04-15T04:20:17.304Z,49.82
2023-04-15T04:23:02.597Z,49.92
2023-04-15T04:25:47.963Z,49.86
2023-04-15T04:28:33.409Z,49.82
2023-04-15T04:31:19.538Z,49.94
2023-04-15T04:34:04.891Z,50.00
2023-04-15T04:36:50.242Z,49.84
2023-04-15T04:39:35.957Z,49.79
2023-04-15T04:42:22.291Z,48.93
2023-04-15T04:45:08.737Z,49.54
2023-04-15T04:47:53.920Z,49.65
2023-04-15T04:50:39.450Z,49.91
2023-04-15T04:53:24.945Z,50.19
2023-04-15T04:56:10.258Z,50.38
2023-04-15T04:58:56.622Z,50.32
2023-04-15T05:01:42.184Z,50.33
2023-04-15T05:04:28.160Z,50.20
2023-04-15T05:07:13.661Z,49.96
2023-04-15T05:09:58.927Z,50.22
2023-04-15T05:12:44.391Z,49.80
2023-04-15T05:15:30.027Z,49.80
2023-04-15T05:18:15.721Z,49.67
2023-04-15T05:21:02.954Z,49.64
2023-04-15T05:23:48.467Z,49.67
2023-04-15T05:26:33.758Z,49.70
2023-04-15T05:29:19.252Z,49.85
2023-04-15T05:32:05.258Z,49.99
2023-04-15T05:34:51.118Z,49.78
2023-04-15T05:37:36.639Z,49.74
2023-04-15T05:40:22.367Z,49.92
2023-04-15T05:43:08.324Z,50.55
2023-04-15T05:45:54.039Z,50.04
2023-04-15T05:48:39.376Z,49.94
2023-04-15T05:51:24.609Z,50.13
2023-04-15T05:54:10.128Z,50.04
2023-04-15T05:56:56.438Z,50.11
2023-04-15T05:59:42.522Z,50.07
2023-04-15T06:02:28.160Z,49.90
2023-04-15T06:05:14.454Z,50.19
2023-04-15T06:07:59.670Z,50.03
2023-04-15T06:10:45.048Z,50.21
2023-04-15T06:13:35.404Z,50.57
2023-04-15T06:16:23.842Z,50.82
2023-04-15T06:19:12.553Z,51.21
2023-04-15T06:21:58.827Z,51.05
2023-04-15T06:24:44.310Z,51.25
2023-04-15T06:27:30.052Z,50.98
2023-04-15T06:30:15.390Z,50.79
2023-04-15T06:33:01.575Z,50.87
2023-04-15T06:35:47.684Z,50.90
2023-04-15T06:38:32.836Z,51.15
2023-04-15T06:41:18.239Z,50.75
2023-04-15T06:44:05.642Z,50.69
2023-04-15T06:46:58.117Z,50.81
2023-04-15T06:50:15.410Z,50.88
2023-04-15T06:53:05.095Z,50.64
2023-04-15T06:55:53.691Z,50.29
2023-04-15T06:58:39.122Z,50.55
2023-04-15T07:01:24.703Z,50.28
2023-04-15T07:04:11.176Z,50.40
2023-04-15T07:06:58.307Z,50.01
2023-04-15T07:09:45.582Z,50.15
2023-04-15T07:12:32.222Z,50.06
2023-04-15T07:15:17.839Z,50.07
2023-04-15T07:18:03.526Z,50.08
2023-04-15T07:20:49.045Z,50.42
2023-04-15T07:23:34.289Z,49.90
2023-04-15T07:26:19.721Z,49.84
2023-04-15T07:29:05.068Z,50.06
2023-04-15T07:31:50.489Z,50.19
2023-04-15T07:34:38.123Z,50.41
2023-04-15T07:37:24.444Z,50.13
2023-04-15T07:40:10.746Z,50.08
2023-04-15T07:42:57.321Z,49.93
2023-04-15T07:45:43.521Z,50.04
2023-04-15T07:48:31.704Z,50.10
2023-04-15T07:51:17.820Z,49.83
2023-04-15T07:54:04.469Z,50.13
2023-04-15T07:56:50.585Z,50.41
2023-04-15T07:59:35.949Z,50.27
2023-04-15T08:02:22.735Z,50.58
2023-04-15T08:05:09.758Z,50.41
2023-04-15T08:07:55.318Z,50.58
2023-04-15T08:10:42.544Z,50.23
2023-04-15T08:13:28.237Z,48.53
2023-04-15T08:16:22.724Z,48.29
2023-04-15T08:19:08.229Z,48.12
2023-04-15T08:21:56.654Z,47.63
2023-04-15T08:24:42.848Z,47.54
2023-04-15T08:27:28.653Z,48.29
2023-04-15T08:30:15.019Z,49.15
2023-04-15T08:33:04.571Z,49.91
2023-04-15T08:35:50.219Z,50.36
2023-04-15T08:38:38.115Z,50.40
2023-04-15T08:41:28.032Z,51.07
2023-04-15T08:44:17.830Z,51.62
2023-04-15T08:47:08.003Z,51.88
2023-04-15T08:49:55.640Z,51.65
2023-04-15T08:52:42.725Z,48.94
2023-04-15T08:55:36.435Z,48.18
2023-04-15T08:58:26.765Z,49.63
2023-04-15T09:01:18.388Z,51.28
2023-04-15T09:04:09.203Z,51.42
2023-04-15T09:06:54.734Z,51.68
2023-04-15T09:09:42.225Z,52.71
2023-04-15T09:12:30.061Z,53.45
2023-04-15T09:15:18.756Z,53.62
2023-04-15T09:18:05.935Z,54.00
2023-04-15T09:20:53.616Z,53.49
2023-04-15T09:23:41.348Z,53.41
2023-04-15T09:26:35.020Z,52.96
2023-04-15T09:29:21.123Z,52.56
2023-04-15T09:32:14.071Z,52.68
2023-04-15T09:35:11.242Z,52.63
2023-04-15T09:38:07.443Z,52.47
2023-04-15T09:40:52.692Z,52.25
2023-04-15T09:43:40.045Z,52.66
2023-04-15T09:46:46.250Z,52.55
2023-04-15T09:49:32.020Z,52.70
2023-04-15T09:52:17.344Z,52.91
2023-04-15T09:55:02.661Z,52.63
2023-04-15T09:57:48.273Z,51.07
2023-04-15T10:00:34.082Z,51.18
2023-04-15T10:03:22.182Z,51.50
2023-04-15T10:06:09.182Z,51.73
2023-04-15T10:08:56.494Z,52.37
2023-04-15T10:11:43.458Z,52.82
2023-04-15T10:14:32.993Z,52.29
2023-04-15T10:17:18.704Z,52.28
2023-04-15T10:20:05.762Z,52.47
2023-04-15T10:22:53.030Z,52.33
2023-04-15T10:25:38.974Z,52.23
2023-04-15T10:28:24.871Z,51.96
2023-04-15T10:31:13.817Z,52.07
2023-04-15T10:34:04.321Z,52.02
2023-04-15T10:36:50.235Z,52.06
2023-04-15T10:39:43.899Z,52.45
2023-04-15T10:42:35.332Z,52.28
2023-04-15T10:45:22.394Z,52.06
2023-04-15T10:48:09.227Z,52.43
2023-04-15T10:51:05.183Z,52.66
2023-04-15T10:53:50.645Z,51.91
2023-04-15T10:56:35.961Z,51.76
2023-04-15T10:59:22.447Z,52.55
2023-04-15T11:02:53.782Z,53.16
2023-04-15T11:05:39.604Z,52.90
2023-04-15T11:08:50.421Z,53.06
2023-04-15T11:12:09.793Z,53.08
2023-04-15T11:14:55.431Z,53.81
2023-04-15T11:17:41.311Z,53.96
2023-04-15T11:20:27.561Z,54.76
2023-04-15T11:23:15.746Z,54.73
2023-04-15T11:26:06.594Z,54.61
2023-04-15T11:28:52.909Z,54.62
2023-04-15T11:31:38.799Z,54.25
2023-04-15T11:34:24.166Z,54.01
2023-04-15T11:37:10.215Z,54.01
2023-04-15T11:39:55.898Z,53.98
2023-04-15T11:42:49.561Z,54.08
2023-04-15T11:45:37.846Z,53.50
2023-04-15T11:48:27.428Z,53.69
2023-04-15T11:51:14.531Z,53.42
2023-04-15T11:54:00.793Z,53.63
2023-04-15T11:56:51.845Z,53.29
2023-04-15T11:59:45.777Z,53.06
2023-04-15T12:02:33.161Z,53.22
2023-04-15T12:05:19.015Z,53.54
2023-04-15T12:08:04.387Z,53.83
2023-04-15T12:10:49.979Z,52.72
2023-04-15T12:13:35.502Z,53.50
2023-04-15T12:16:22.356Z,52.81
2023-04-15T12:19:11.528Z,52.45
2023-04-15T12:22:02.583Z,52.77
2023-04-15T12:24:54.170Z,53.13
2023-04-15T12:27:39.445Z,52.92
2023-04-15T12:30:24.690Z,53.33
2023-04-15T12:33:10.478Z,53.22
2023-04-15T12:35:55.850Z,53.06
2023-04-15T12:38:41.370Z,53.05
2023-04-15T12:41:27.176Z,52.50
2023-04-15T12:44:12.791Z,53.29
2023-04-15T12:47:03.225Z,52.23
2023-04-15T12:49:49.751Z,52.51
2023-04-15T12:52:35.626Z,52.58
2023-04-15T12:55:21.707Z,52.28
2023-04-15T12:58:07.291Z,52.09
2023-04-15T13:00:53.710Z,52.35
2023-04-15T13:03:40.550Z,51.23
2023-04-15T13:06:26.247Z,49.33
2023-04-15T13:09:13.702Z,49.36
2023-04-15T13:11:59.643Z,49.90
2023-04-15T13:14:46.113Z,50.12
2023-04-15T13:17:31.746Z,50.32
2023-04-15T13:20:17.417Z,50.52
2023-04-15T13:23:03.128Z,50.61
2023-04-15T13:25:48.634Z,50.71
2023-04-15T13:28:34.711Z,50.49
2023-04-15T13:31:20.579Z,50.70
2023-04-15T13:34:06.443Z,50.79
2023-04-15T13:36:52.264Z,50.76
2023-04-15T13:39:37.616Z,51.74
2023-04-15T13:42:24.079Z,51.67
2023-04-15T13:45:10.168Z,52.10
2023-04-15T13:47:57.268Z,52.03
2023-04-15T13:50:45.442Z,52.46
2023-04-15T13:53:38.228Z,52.80
2023-04-15T13:56:24.945Z,52.42
2023-04-15T13:59:10.835Z,52.15
2023-04-15T14:01:56.661Z,52.76
2023-04-15T14:04:42.421Z,52.14
2023-04-15T14:07:29.829Z,51.92
2023-04-15T14:10:15.267Z,51.75
2023-04-15T14:13:00.620Z,51.98
2023-04-15T14:15:45.989Z,51.65
2023-04-15T14:18:31.450Z,51.74
2023-04-15T14:21:16.650Z,51.72
2023-04-15T14:24:01.948Z,51.45
2023-04-15T14:26:48.322Z,51.31
2023-04-15T14:29:33.602Z,51.30
2023-04-15T14:32:19.029Z,51.33
2023-04-15T14:35:04.540Z,51.27
2023-04-15T14:37:50.318Z,51.12
2023-04-15T14:40:35.709Z,51.10
2023-04-15T14:43:21.873Z,52.25
2023-04-15T14:46:08.611Z,51.42
2023-04-15T14:48:55.687Z,51.14
2023-04-15T14:51:41.882Z,51.81
2023-04-15T14:54:27.362Z,51.43
2023-04-15T14:57:13.954Z,51.35
2023-04-15T14:59:59.873Z,51.37
2023-04-15T15:02:47.485Z,50.89
2023-04-15T15:05:33.828Z,51.41
2023-04-15T15:08:19.456Z,51.27
2023-04-15T15:11:06.042Z,51.14
2023-04-15T15:13:53.237Z,51.22
2023-04-15T15:16:39.094Z,50.96
2023-04-15T15:19:25.008Z,50.57
2023-04-15T15:22:10.629Z,50.93
2023-04-15T15:24:59.339Z,50.95
2023-04-15T15:27:44.743Z,50.64
2023-04-15T15:30:30.761Z,50.60
2023-04-15T15:33:16.909Z,51.03
2023-04-15T15:36:03.286Z,50.92
2023-04-15T15:38:49.307Z,51.27
2023-04-15T15:41:40.451Z,51.54
2023-04-15T15:44:26.204Z,51.53
2023-04-15T15:47:11.897Z,51.57
2023-04-15T15:50:00.524Z,51.48
2023-04-15T15:52:46.504Z,51.52
2023-04-15T15:55:31.954Z,51.32
2023-04-15T15:58:17.588Z,50.91
2023-04-15T16:01:03.124Z,50.77
2023-04-15T16:03:48.860Z,50.75
2023-04-15T16:06:35.399Z,50.68
2023-04-15T16:09:21.825Z,50.57
2023-04-15T16:12:07.086Z,50.40
2023-04-15T16:14:53.251Z,50.32
2023-04-15T16:17:39.389Z,50.67
2023-04-15T16:20:25.143Z,50.26
2023-04-15T16:23:16.192Z,50.39
2023-04-15T16:26:01.612Z,50.13
2023-04-15T16:28:46.905Z,50.28
2023-04-15T16:31:32.259Z,50.56
2023-04-15T16:34:18.640Z,50.42
2023-04-15T16:37:07.300Z,50.30
2023-04-15T16:39:53.404Z,49.93
2023-04-15T16:42:39.799Z,49.81
2023-04-15T16:45:25.406Z,49.87
2023-04-15T16:48:11.012Z,50.19
2023-04-15T16:50:57.206Z,50.28
2023-04-15T16:53:44.314Z,50.16
2023-04-15T16:56:29.767Z,49.70
2023-04-15T16:59:14.931Z,49.57
2023-04-15T17:02:00.750Z,49.71
2023-04-15T17:04:46.321Z,49.86
2023-04-15T17:07:32.117Z,49.71
2023-04-15T17:10:17.588Z,49.97
2023-04-15T17:13:03.076Z,49.48
2023-04-15T17:15:48.614Z,49.83
2023-04-15T17:18:34.408Z,49.92
2023-04-15T17:21:19.983Z,49.90
2023-04-15T17:24:06.292Z,49.68
2023-04-15T17:26:53.786Z,49.27
2023-04-15T17:29:39.549Z,49.74
2023-04-15T17:32:32.027Z,49.63
2023-04-15T17:35:24.943Z,49.50
2023-04-15T17:38:11.742Z,50.53
2023-04-15T17:40:57.184Z,49.98
2023-04-15T17:43:43.101Z,50.35
2023-04-15T17:46:28.918Z,50.46
2023-04-15T17:49:14.409Z,50.29
2023-04-15T17:52:01.285Z,50.16
2023-04-15T17:54:46.993Z,49.85
2023-04-15T17:57:32.716Z,49.97
2023-04-15T18:00:18.234Z,49.97
2023-04-15T18:03:04.488Z,49.13
2023-04-15T18:05:50.727Z,49.29
2023-04-15T18:08:36.802Z,49.40
2023-04-15T18:11:22.771Z,49.47
2023-04-15T18:14:08.835Z,49.40
2023-04-15T18:16:54.675Z,49.29
2023-04-15T18:19:41.780Z,49.26
2023-04-15T18:22:28.362Z,49.17
2023-04-15T18:25:13.941Z,49.31
2023-04-15T18:27:59.951Z,49.86
2023-04-15T18:30:45.790Z,50.47
2023-04-15T18:33:31.224Z,50.27
2023-04-15T18:36:17.340Z,50.22
2023-04-15T18:39:02.917Z,50.62
2023-04-15T18:41:48.917Z,50.28
2023-04-15T18:44:34.290Z,50.59
2023-04-15T18:47:20.710Z,50.54
2023-04-15T18:50:09.636Z,50.35
2023-04-15T18:52:58.200Z,50.20
2023-04-15T18:55:44.805Z,49.96
2023-04-15T18:59:19.053Z,50.07
2023-04-15T19:01:44.183Z,50.20
2023-04-15T19:04:30.638Z,50.02
2023-04-15T19:07:16.585Z,49.84
2023-04-15T19:10:06.493Z,50.26
2023-04-15T19:12:52.168Z,49.82
2023-04-15T19:15:37.703Z,50.23
2023-04-15T19:18:22.798Z,49.90
2023-04-15T19:21:08.603Z,49.03
2023-04-15T19:23:56.637Z,49.50
2023-04-15T19:26:42.776Z,49.80
2023-04-15T19:29:31.327Z,49.97
2023-04-15T19:32:17.636Z,49.92
2023-04-15T19:35:03.390Z,50.14
2023-04-15T19:37:49.240Z,49.85
2023-04-15T19:40:34.741Z,50.05
2023-04-15T19:43:20.145Z,49.92
2023-04-15T19:46:06.731Z,50.03
2023-04-15T19:48:53.322Z,49.86
2023-04-15T19:51:39.954Z,49.97
2023-04-15T19:54:26.128Z,49.91
2023-04-15T19:57:11.609Z,50.14
2023-04-15T19:59:57.594Z,50.00
2023-04-15T20:02:42.996Z,49.75
2023-04-15T20:05:29.512Z,49.65
2023-04-15T20:08:15.451Z,49.79
2023-04-15T20:11:01.732Z,50.02
2023-04-15T20:13:47.418Z,49.98
2023-04-15T20:16:34.960Z,49.63
2023-04-15T20:19:20.618Z,49.22
2023-04-15T20:22:05.994Z,49.32
2023-04-15T20:24:51.325Z,49.40
2023-04-15T20:27:36.806Z,49.23
2023-04-15T20:30:22.564Z,49.40
2023-04-15T20:33:08.318Z,49.42
2023-04-15T20:35:54.611Z,49.44
2023-04-15T20:38:40.644Z,49.49
2023-04-15T20:41:26.473Z,49.51
2023-04-15T20:44:12.129Z,49.32
2023-04-15T20:46:58.007Z,49.42
2023-04-15T20:49:43.422Z,49.31
2023-04-15T20:52:29.146Z,48.86
2023-04-15T20:55:15.027Z,49.01
2023-04-15T20:58:00.491Z,48.69
2023-04-15T21:00:46.261Z,48.66
2023-04-15T21:03:31.540Z,48.29
2023-04-15T21:06:17.940Z,48.42
2023-04-15T21:09:03.449Z,48.74
2023-04-15T21:14:39.647Z,48.94
2023-04-15T21:17:25.137Z,48.88
2023-04-15T21:20:11.343Z,48.78
2023-04-15T21:22:56.581Z,48.95
2023-04-15T21:25:41.900Z,49.28
2023-04-15T21:28:30.630Z,48.79
2023-04-15T21:31:16.292Z,48.73
2023-04-15T21:34:02.155Z,48.77
2023-04-15T21:36:47.875Z,48.62
2023-04-15T21:39:33.174Z,48.83
2023-04-15T21:42:18.910Z,48.76
2023-04-15T21:45:04.535Z,48.87
2023-04-15T21:48:05.870Z,48.85
2023-04-15T21:51:01.660Z,48.89
2023-04-15T21:53:47.090Z,48.87
2023-04-15T21:56:32.893Z,48.98
2023-04-15T21:59:18.358Z,48.87
2023-04-15T22:02:03.733Z,48.64
2023-04-15T22:04:48.799Z,48.03
2023-04-15T22:07:34.420Z,48.45
2023-04-15T22:10:20.865Z,48.65
2023-04-15T22:13:08.764Z,48.71
2023-04-15T22:15:54.364Z,48.83
2023-04-15T22:18:39.646Z,48.69
2023-04-15T22:21:25.013Z,48.64
2023-04-15T22:24:39.274Z,48.66
2023-04-15T22:27:15.983Z,48.98
2023-04-15T22:30:01.246Z,48.42
2023-04-15T22:32:46.666Z,48.07
2023-04-15T22:35:31.812Z,47.98
2023-04-15T22:38:17.173Z,47.87
2023-04-15T22:41:02.399Z,48.32
2023-04-15T22:43:47.695Z,48.12
2023-04-15T22:46:33.378Z,48.17
2023-04-15T22:49:18.797Z,48.45
2023-04-15T22:52:04.295Z,48.19
2023-04-15T22:54:49.576Z,48.55
2023-04-15T22:57:34.722Z,48.57
2023-04-15T23:00:20.119Z,48.42
2023-04-15T23:03:05.728Z,48.53
2023-04-15T23:05:52.978Z,48.53
2023-04-15T23:08:39.172Z,48.73
2023-04-15T23:11:24.372Z,48.71
2023-04-15T23:14:09.673Z,48.70
2023-04-15T23:16:55.224Z,48.75
2023-04-15T23:19:40.843Z,48.89
2023-04-15T23:22:26.109Z,48.85
2023-04-15T23:25:11.355Z,49.03
2023-04-15T23:27:56.794Z,48.89
2023-04-15T23:30:42.136Z,48.90
2023-04-15T23:33:27.436Z,49.08
2023-04-15T23:36:12.733Z,49.14
2023-04-15T23:38:58.007Z,49.11
2023-04-15T23:41:43.153Z,49.06
2023-04-15T23:44:28.424Z,49.19
2023-04-15T23:47:13.827Z,49.25
2023-04-15T23:49:58.934Z,49.26
2023-04-15T23:52:44.386Z,49.23
2023-04-15T23:55:30.779Z,49.34
2023-04-15T23:58:16.092Z,49.36
